Time;durP1;ratioP1;P1;durP2;ratioP2;P2;SDS_P1;SDS_P2;PMS_P1;PMS_P2;Temp;Humidity;BMP_temperature;BMP_pressure;BME280_temperature;BME280_humidity;BME280_pressure;Samples;Min_cycle;Max_cycle;Signal;HPM_P1;HPM_P2
2022/10/26 00:00:21;;;;;;;11.52;10.30;;;;;;;;;;4995495;28;100564;-78
2022/10/26 00:02:47;;;;;;;13.63;10.68;;;;;;;;;;4993588;28;97740;-78
2022/10/26 00:05:15;;;;;;;16.73;10.38;;;;;;;;;;4992581;28;99195;-77
2022/10/26 00:07:41;;;;;;;15.52;10.32;;;;;;;;;;5005493;28;100269;-78
2022/10/26 00:10:07;;;;;;;14.85;10.10;;;;;;;;;;5011040;28;99411;-78
2022/10/26 00:12:34;;;;;;;16.30;10.68;;;;;;;;;;5012878;28;100779;-79
2022/10/26 00:15:00;;;;;;;19.95;9.82;;;;;;;;;;5011232;28;100019;-78
2022/10/26 00:17:26;;;;;;;13.75;10.55;;;;;;;;;;5012174;28;98515;-78
2022/10/26 00:19:53;;;;;;;12.95;10.18;;;;;;;;;;5012379;28;100061;-78
2022/10/26 00:22:20;;;;;;;17.35;9.98;;;;;;;;;;5011716;28;100233;-78
2022/10/26 00:24:46;;;;;;;15.68;10.88;;;;;;;;;;4992063;28;100196;-78
2022/10/26 00:27:13;;;;;;;21.05;11.23;;;;;;;;;;4992656;28;99583;-78
2022/10/26 00:29:39;;;;;;;14.45;10.82;;;;;;;;;;4992643;28;98429;-78
2022/10/26 00:32:06;;;;;;;11.25;9.45;;;;;;;;;;4991413;28;100114;-78
2022/10/26 00:34:32;;;;;;;14.23;10.32;;;;;;;;;;4991085;28;100044;-78
2022/10/26 00:36:58;;;;;;;13.32;10.13;;;;;;;;;;4992043;28;98611;-78
2022/10/26 00:39:25;;;;;;;15.27;10.43;;;;;;;;;;4991410;28;100055;-78
2022/10/26 00:41:51;;;;;;;16.92;10.73;;;;;;;;;;4992221;28;100227;-78
2022/10/26 00:44:36;;;;;;;17.05;10.45;;;;;;;;;;4995547;28;98579;-78
2022/10/26 00:47:03;;;;;;;22.05;10.77;;;;;;;;;;4990901;28;102310;-78
2022/10/26 00:49:30;;;;;;;21.60;11.25;;;;;;;;;;4991928;28;98614;-78
2022/10/26 00:51:56;;;;;;;19.17;9.95;;;;;;;;;;4991328;28;99891;-77
2022/10/26 00:54:22;;;;;;;13.70;10.32;;;;;;;;;;4991697;28;100322;-78
2022/10/26 00:56:50;;;;;;;15.13;10.70;;;;;;;;;;4991747;28;100062;-78
2022/10/26 00:59:17;;;;;;;15.63;9.48;;;;;;;;;;4991229;28;101267;-77
2022/10/26 01:01:45;;;;;;;13.70;10.43;;;;;;;;;;4992455;28;99577;-78
2022/10/26 01:04:13;;;;;;;15.70;10.35;;;;;;;;;;4992046;28;98467;-78
2022/10/26 01:06:41;;;;;;;13.55;9.50;;;;;;;;;;4994053;28;100041;-78
2022/10/26 01:09:08;;;;;;;15.82;9.27;;;;;;;;;;4991507;28;98514;-77
2022/10/26 01:11:34;;;;;;;17.83;9.52;;;;;;;;;;4992586;28;99820;-77
2022/10/26 01:14:03;;;;;;;10.80;8.68;;;;;;;;;;4991501;28;100280;-78
2022/10/26 01:16:35;;;;;;;9.70;8.80;;;;;;;;;;5011427;28;97826;-78
2022/10/26 01:19:22;;;;;;;16.83;8.60;;;;;;;;;;5012278;28;99156;-77
2022/10/26 01:21:54;;;;;;;17.10;8.23;;;;;;;;;;5002296;28;100331;-76
2022/10/26 01:24:26;;;;;;;19.80;8.52;;;;;;;;;;4991667;28;99229;-78
2022/10/26 01:26:53;;;;;;;11.88;8.30;;;;;;;;;;4992414;28;100583;-77
2022/10/26 01:29:32;;;;;;;13.07;8.05;;;;;;;;;;4993822;28;100190;-77
2022/10/26 01:32:03;;;;;;;13.50;8.00;;;;;;;;;;4992230;28;100267;-78
2022/10/26 01:34:35;;;;;;;17.75;8.52;;;;;;;;;;4990531;28;100408;-78
2022/10/26 01:37:09;;;;;;;14.00;8.53;;;;;;;;;;4991418;28;98593;-78
2022/10/26 01:39:47;;;;;;;12.38;7.75;;;;;;;;;;4992069;28;99980;-77
2022/10/26 01:42:15;;;;;;;10.45;8.05;;;;;;;;;;4991771;28;99182;-76
2022/10/26 01:44:44;;;;;;;11.00;7.22;;;;;;;;;;4991966;28;98513;-78
2022/10/26 01:47:12;;;;;;;11.70;7.82;;;;;;;;;;4991853;28;99953;-78
2022/10/26 01:49:41;;;;;;;9.68;7.28;;;;;;;;;;4990903;28;100961;-77
2022/10/26 01:52:08;;;;;;;11.52;7.95;;;;;;;;;;4994165;28;98466;-76
2022/10/26 01:54:35;;;;;;;11.98;7.03;;;;;;;;;;4991577;28;100237;-76
2022/10/26 01:57:04;;;;;;;13.07;7.75;;;;;;;;;;4991217;28;98550;-77
2022/10/26 01:59:57;;;;;;;10.38;6.90;;;;;;;;;;4991341;28;102085;-77
2022/10/26 02:02:25;;;;;;;14.00;7.38;;;;;;;;;;4988622;28;100241;-77
2022/10/26 02:04:59;;;;;;;13.07;7.18;;;;;;;;;;4992255;28;98568;-77
2022/10/26 02:07:33;;;;;;;17.65;7.35;;;;;;;;;;4997697;28;100609;-77
2022/10/26 02:10:13;;;;;;;12.57;7.35;;;;;;;;;;4990529;28;100170;-78
2022/10/26 02:12:41;;;;;;;14.60;7.88;;;;;;;;;;4995315;28;98522;-77
2022/10/26 02:15:12;;;;;;;14.57;8.18;;;;;;;;;;4990850;28;100038;-77
2022/10/26 02:17:45;;;;;;;11.57;8.13;;;;;;;;;;4989271;28;98530;-77
2022/10/26 02:20:12;;;;;;;;;;;;;;;;;;4992050;28;99937;-77
2022/10/26 02:22:41;;;;;;;13.70;7.90;;;;;;;;;;4991990;28;117398;-77
2022/10/26 02:25:12;;;;;;;12.27;8.07;;;;;;;;;;4991400;28;98673;-78
2022/10/26 02:27:41;;;;;;;17.00;8.00;;;;;;;;;;4991858;28;101593;-78
2022/10/26 02:30:09;;;;;;;14.93;8.52;;;;;;;;;;4991012;28;100333;-77
2022/10/26 02:32:37;;;;;;;17.52;7.68;;;;;;;;;;4991504;28;98318;-79
2022/10/26 02:35:04;;;;;;;15.65;8.88;;;;;;;;;;4993930;28;99143;-77
2022/10/26 02:37:35;;;;;;;9.82;7.80;;;;;;;;;;4992460;28;98584;-77
2022/10/26 02:40:04;;;;;;;14.82;8.43;;;;;;;;;;4994773;28;99770;-77
2022/10/26 02:42:32;;;;;;;9.65;8.40;;;;;;;;;;4994600;28;100195;-77
2022/10/26 02:45:01;;;;;;;13.38;8.43;;;;;;;;;;4993354;28;98964;-77
2022/10/26 02:47:28;;;;;;;12.25;8.25;;;;;;;;;;4995191;28;101370;-77
2022/10/26 02:49:54;;;;;;;12.93;9.30;;;;;;;;;;4993953;28;100186;-77
2022/10/26 02:52:30;;;;;;;12.82;8.20;;;;;;;;;;4993708;28;98580;-78
2022/10/26 02:55:13;;;;;;;17.38;10.05;;;;;;;;;;4994570;28;99995;-77
2022/10/26 02:57:40;;;;;;;17.50;9.20;;;;;;;;;;4997734;28;99963;-77
2022/10/26 03:00:08;;;;;;;18.95;9.18;;;;;;;;;;4994177;28;99270;-77
2022/10/26 03:02:36;;;;;;;13.93;9.10;;;;;;;;;;4994216;28;100110;-76
2022/10/26 03:05:16;;;;;;;14.70;9.60;;;;;;;;;;4994228;28;99316;-77
2022/10/26 03:07:43;;;;;;;13.30;9.18;;;;;;;;;;4993817;28;100643;-77
2022/10/26 03:10:09;;;;;;;13.75;9.20;;;;;;;;;;4993076;28;100405;-77
2022/10/26 03:12:36;;;;;;;14.85;9.35;;;;;;;;;;4994943;28;98548;-77
2022/10/26 03:15:03;;;;;;;14.52;9.95;;;;;;;;;;4972541;28;99951;-77
2022/10/26 03:17:29;;;;;;;13.50;9.48;;;;;;;;;;4974405;28;100297;-78
2022/10/26 03:19:55;;;;;;;13.00;9.27;;;;;;;;;;4975451;28;98684;-78
2022/10/26 03:22:22;;;;;;;13.95;8.85;;;;;;;;;;4991928;28;99557;-78
2022/10/26 03:24:48;;;;;;;17.10;8.52;;;;;;;;;;4994215;28;98552;-78
2022/10/26 03:27:14;;;;;;;14.93;9.45;;;;;;;;;;4993243;28;99950;-78
2022/10/26 03:29:41;;;;;;;16.15;8.40;;;;;;;;;;4993295;28;100053;-77
2022/10/26 03:32:07;;;;;;;19.02;9.68;;;;;;;;;;4995095;28;99164;-77
2022/10/26 03:34:33;;;;;;;17.58;9.25;;;;;;;;;;4992363;28;99962;-78
2022/10/26 03:37:00;;;;;;;15.93;8.88;;;;;;;;;;4993220;28;99527;-78
2022/10/26 03:39:26;;;;;;;17.77;8.57;;;;;;;;;;4993215;28;98512;-78
2022/10/26 03:41:54;;;;;;;18.20;9.43;;;;;;;;;;4996283;28;99926;-78
2022/10/26 03:44:20;;;;;;;16.15;9.68;;;;;;;;;;4992675;28;98677;-79
2022/10/26 03:46:47;;;;;;;16.05;9.27;;;;;;;;;;4994468;28;99944;-78
2022/10/26 03:49:13;;;;;;;13.18;8.75;;;;;;;;;;4992160;28;100171;-78
2022/10/26 03:51:41;;;;;;;11.20;8.40;;;;;;;;;;4993935;28;98603;-78
2022/10/26 03:54:08;;;;;;;12.88;9.00;;;;;;;;;;4993013;28;100186;-78
2022/10/26 03:56:34;;;;;;;17.63;9.00;;;;;;;;;;4992251;28;100534;-78
2022/10/26 03:59:00;;;;;;;11.23;8.38;;;;;;;;;;4993679;28;98559;-78
2022/10/26 04:01:29;;;;;;;15.52;8.63;;;;;;;;;;4996617;28;100033;-78
2022/10/26 04:03:55;;;;;;;13.98;9.48;;;;;;;;;;4993068;28;98593;-78
2022/10/26 04:06:22;;;;;;;17.10;9.32;;;;;;;;;;4994627;28;99342;-78
2022/10/26 04:08:50;;;;;;;21.58;9.48;;;;;;;;;;4993124;28;100140;-78
2022/10/26 04:11:17;;;;;;;28.73;9.80;;;;;;;;;;4993597;28;97755;-78
2022/10/26 04:13:43;;;;;;;17.13;9.75;;;;;;;;;;4993276;28;98572;-78
2022/10/26 04:16:11;;;;;;;11.20;8.68;;;;;;;;;;4991958;28;100362;-78
2022/10/26 04:18:38;;;;;;;19.08;8.98;;;;;;;;;;4993069;28;99284;-78
2022/10/26 04:21:04;;;;;;;12.80;9.55;;;;;;;;;;4993764;28;99805;-78
2022/10/26 04:23:32;;;;;;;16.40;9.40;;;;;;;;;;5015986;28;100096;-78
2022/10/26 04:25:58;;;;;;;15.82;9.07;;;;;;;;;;5013411;28;99804;-79
2022/10/26 04:28:25;;;;;;;16.02;9.02;;;;;;;;;;5012183;28;100183;-76
2022/10/26 04:30:51;;;;;;;16.02;9.45;;;;;;;;;;5012569;28;98463;-78
2022/10/26 04:33:17;;;;;;;18.05;9.18;;;;;;;;;;5012866;28;100261;-77
2022/10/26 04:35:45;;;;;;;17.48;8.95;;;;;;;;;;5013383;28;99399;-77
2022/10/26 04:38:11;;;;;;;14.95;9.60;;;;;;;;;;5011991;28;98923;-77
2022/10/26 04:40:38;;;;;;;13.52;9.38;;;;;;;;;;5013067;28;99939;-79
2022/10/26 04:43:04;;;;;;;14.23;9.40;;;;;;;;;;5012011;28;102082;-78
2022/10/26 04:45:30;;;;;;;25.30;10.07;;;;;;;;;;4998776;28;98569;-78
2022/10/26 04:48:01;;;;;;;18.90;9.63;;;;;;;;;;4991441;28;100110;-79
2022/10/26 04:50:27;;;;;;;13.15;9.10;;;;;;;;;;4991867;28;98608;-79
2022/10/26 04:52:54;;;;;;;13.13;8.85;;;;;;;;;;4991336;28;100050;-78
2022/10/26 04:55:20;;;;;;;13.30;9.30;;;;;;;;;;4991723;28;100173;-78
2022/10/26 04:57:47;;;;;;;14.05;9.52;;;;;;;;;;4992543;28;98707;-79
2022/10/26 05:00:15;;;;;;;17.25;8.95;;;;;;;;;;4992339;28;99957;-78
2022/10/26 05:02:42;;;;;;;17.02;8.77;;;;;;;;;;4992219;28;100422;-78
2022/10/26 05:05:10;;;;;;;16.55;9.85;;;;;;;;;;4992850;28;98367;-78
2022/10/26 05:07:41;;;;;;;20.00;9.20;;;;;;;;;;4994347;28;100717;-78
2022/10/26 05:10:08;;;;;;;16.92;8.43;;;;;;;;;;4991343;28;99151;-78
2022/10/26 05:12:35;;;;;;;10.38;8.55;;;;;;;;;;4992603;28;99869;-78
2022/10/26 05:15:01;;;;;;;15.88;9.02;;;;;;;;;;4991278;28;100700;-78
2022/10/26 05:17:33;;;;;;;12.98;7.57;;;;;;;;;;4992623;28;98507;-78
2022/10/26 05:20:04;;;;;;;20.20;10.00;;;;;;;;;;4991235;28;99899;-78
2022/10/26 05:22:31;;;;;;;16.50;8.88;;;;;;;;;;4991277;28;100371;-78
2022/10/26 05:24:57;;;;;;;20.83;9.10;;;;;;;;;;4992323;28;98051;-78
2022/10/26 05:27:24;;;;;;;16.17;8.98;;;;;;;;;;4991884;28;99190;-78
2022/10/26 05:29:50;;;;;;;15.18;8.63;;;;;;;;;;4995506;28;99360;-78
2022/10/26 05:32:16;;;;;;;30.88;9.27;;;;;;;;;;4991862;28;100132;-78
2022/10/26 05:34:43;;;;;;;11.98;7.85;;;;;;;;;;4990560;28;100195;-78
2022/10/26 05:37:09;;;;;;;12.30;8.70;;;;;;;;;;4992020;28;98973;-78
2022/10/26 05:39:35;;;;;;;17.73;8.43;;;;;;;;;;4992043;28;101859;-79
2022/10/26 05:42:04;;;;;;;13.88;9.48;;;;;;;;;;4990639;28;100199;-78
2022/10/26 05:44:30;;;;;;;16.90;8.07;;;;;;;;;;4992087;28;98614;-78
2022/10/26 05:46:58;;;;;;;15.30;8.60;;;;;;;;;;4999009;28;99856;-77
2022/10/26 05:49:24;;;;;;;18.38;8.30;;;;;;;;;;5012300;28;99698;-78
2022/10/26 05:51:51;;;;;;;10.90;7.88;;;;;;;;;;5015658;28;98471;-78
2022/10/26 05:54:17;;;;;;;20.20;9.10;;;;;;;;;;5011847;28;99632;-78
2022/10/26 05:56:43;;;;;;;14.45;8.93;;;;;;;;;;5010910;28;99285;-78
2022/10/26 05:59:11;;;;;;;10.48;7.82;;;;;;;;;;5012103;28;99892;-78
2022/10/26 06:01:52;;;;;;;20.83;8.57;;;;;;;;;;4995693;28;100130;-78
2022/10/26 06:04:29;;;;;;;9.98;7.97;;;;;;;;;;5000070;28;99534;-78
2022/10/26 06:06:56;;;;;;;17.55;7.95;;;;;;;;;;4989235;28;100065;-77
2022/10/26 06:09:22;;;;;;;20.08;8.05;;;;;;;;;;4988339;28;100253;-77
2022/10/26 06:11:49;;;;;;;11.25;7.85;;;;;;;;;;4993791;28;100411;-84
2022/10/26 06:14:15;;;;;;;14.68;7.75;;;;;;;;;;4991990;28;99518;-77
2022/10/26 06:17:05;;;;;;;13.02;8.27;;;;;;;;;;4993939;28;98866;-77
2022/10/26 06:19:34;;;;;;;13.38;8.13;;;;;;;;;;4982837;28;99902;-77
2022/10/26 06:22:18;;;;;;;12.30;7.50;;;;;;;;;;4993062;28;101140;-77
2022/10/26 06:24:47;;;;;;;16.92;7.97;;;;;;;;;;4993497;28;99919;-76
2022/10/26 06:27:19;;;;;;;12.75;7.50;;;;;;;;;;4992584;28;100724;-77
2022/10/26 06:29:55;;;;;;;13.13;7.38;;;;;;;;;;4994203;28;99572;-77
2022/10/26 06:32:23;;;;;;;10.25;6.95;;;;;;;;;;4994680;28;98652;-76
2022/10/26 06:34:51;;;;;;;17.63;7.75;;;;;;;;;;4995953;28;100028;-77
2022/10/26 06:37:18;;;;;;;13.73;7.57;;;;;;;;;;4990447;28;99102;-77
2022/10/26 06:39:45;;;;;;;9.85;7.22;;;;;;;;;;4994878;28;99985;-77
2022/10/26 06:42:16;;;;;;;11.30;6.83;;;;;;;;;;4994392;28;100647;-76
2022/10/26 06:44:43;;;;;;;13.10;7.57;;;;;;;;;;4994079;28;98546;-76
2022/10/26 06:47:25;;;;;;;13.57;7.68;;;;;;;;;;4994427;28;100174;-75
2022/10/26 06:50:01;;;;;;;10.38;7.50;;;;;;;;;;4994284;28;100421;-75
2022/10/26 06:52:57;;;;;;;14.98;7.32;;;;;;;;;;4991717;28;99436;-75
2022/10/26 06:55:25;;;;;;;11.73;7.63;;;;;;;;;;4990812;28;100338;-76
2022/10/26 06:57:52;;;;;;;14.35;7.32;;;;;;;;;;4996777;28;100415;-75
2022/10/26 07:00:19;;;;;;;13.30;7.57;;;;;;;;;;4993001;28;99944;-76
2022/10/26 07:02:48;;;;;;;7.32;6.60;;;;;;;;;;4989374;28;100102;-76
2022/10/26 07:05:15;;;;;;;12.20;7.22;;;;;;;;;;4983975;28;97835;-76
2022/10/26 07:07:43;;;;;;;14.85;6.38;;;;;;;;;;4990395;28;99175;-76
2022/10/26 07:10:10;;;;;;;11.05;7.13;;;;;;;;;;4994491;28;100258;-76
2022/10/26 07:12:36;;;;;;;12.35;6.70;;;;;;;;;;4991924;28;99848;-75
2022/10/26 07:15:03;;;;;;;7.90;6.95;;;;;;;;;;4999154;28;99903;-76
2022/10/26 07:17:29;;;;;;;11.27;7.13;;;;;;;;;;4994066;28;100445;-75
2022/10/26 07:19:55;;;;;;;11.10;6.75;;;;;;;;;;4996826;28;98938;-77
2022/10/26 07:22:24;;;;;;;10.05;6.53;;;;;;;;;;4993029;28;100139;-76
2022/10/26 07:24:52;;;;;;;9.10;6.63;;;;;;;;;;4993299;28;99507;-76
2022/10/26 07:27:18;;;;;;;14.40;6.85;;;;;;;;;;4993874;28;99846;-77
2022/10/26 07:29:45;;;;;;;8.27;6.18;;;;;;;;;;4994270;28;99374;-77
2022/10/26 07:32:14;;;;;;;15.02;7.10;;;;;;;;;;4989158;28;101066;-77
2022/10/26 07:34:40;;;;;;;17.63;6.47;;;;;;;;;;4985185;28;99487;-77
2022/10/26 07:37:06;;;;;;;10.32;6.85;;;;;;;;;;4987659;28;100849;-76
2022/10/26 07:39:33;;;;;;;16.45;7.13;;;;;;;;;;4991293;28;98592;-76
2022/10/26 07:42:00;;;;;;;13.88;6.63;;;;;;;;;;4984230;28;100072;-77
2022/10/26 07:44:26;;;;;;;9.77;6.25;;;;;;;;;;4990897;28;98648;-77
2022/10/26 07:46:53;;;;;;;14.50;7.20;;;;;;;;;;4988328;28;100548;-76
2022/10/26 07:49:19;;;;;;;9.68;6.43;;;;;;;;;;4984318;28;101237;-76
2022/10/26 07:51:53;;;;;;;12.25;6.18;;;;;;;;;;4998245;28;98552;-77
2022/10/26 07:54:19;;;;;;;11.43;6.35;;;;;;;;;;4992092;28;99156;-77
2022/10/26 07:56:52;;;;;;;10.93;6.65;;;;;;;;;;4985193;28;100303;-77
2022/10/26 07:59:19;;;;;;;10.27;6.45;;;;;;;;;;4986043;28;99702;-77
2022/10/26 08:01:45;;;;;;;14.85;6.93;;;;;;;;;;4991343;28;101162;-76
2022/10/26 08:04:13;;;;;;;8.98;6.28;;;;;;;;;;4995664;28;100515;-76
2022/10/26 08:06:39;;;;;;;9.98;5.90;;;;;;;;;;4991358;28;100316;-77
2022/10/26 08:09:07;;;;;;;17.77;6.55;;;;;;;;;;4991577;28;100317;-75
2022/10/26 08:11:35;;;;;;;8.02;5.82;;;;;;;;;;4990990;28;99697;-75
2022/10/26 08:14:02;;;;;;;7.57;5.28;;;;;;;;;;4990263;28;99097;-74
2022/10/26 08:16:30;;;;;;;8.32;5.93;;;;;;;;;;4984019;28;99178;-75
2022/10/26 08:18:56;;;;;;;7.45;5.43;;;;;;;;;;4993784;28;97652;-76
2022/10/26 08:21:24;;;;;;;7.85;5.68;;;;;;;;;;4992793;28;99367;-76
2022/10/26 08:24:06;;;;;;;8.45;5.63;;;;;;;;;;4995429;28;100063;-76
2022/10/26 08:26:33;;;;;;;9.68;5.97;;;;;;;;;;4993173;28;99178;-76
2022/10/26 08:29:03;;;;;;;9.48;5.05;;;;;;;;;;4989356;28;100187;-76
2022/10/26 08:31:30;;;;;;;9.60;5.00;;;;;;;;;;4989267;28;99226;-76
2022/10/26 08:33:57;;;;;;;4.65;4.20;;;;;;;;;;4988707;28;99958;-76
2022/10/26 08:36:26;;;;;;;6.68;5.03;;;;;;;;;;4990873;28;100509;-76
2022/10/26 08:38:52;;;;;;;10.18;4.80;;;;;;;;;;4991016;28;99613;-76
2022/10/26 08:41:23;;;;;;;9.23;4.35;;;;;;;;;;4990675;28;99448;-77
2022/10/26 08:43:56;;;;;;;9.35;4.15;;;;;;;;;;4989840;28;98295;-79
2022/10/26 08:46:39;;;;;;;6.82;3.97;;;;;;;;;;4980807;28;101559;-77
2022/10/26 08:49:21;;;;;;;12.50;4.70;;;;;;;;;;4987277;28;99631;-78
2022/10/26 08:51:49;;;;;;;8.15;4.10;;;;;;;;;;4987298;28;99392;-77
2022/10/26 08:54:35;;;;;;;8.05;4.13;;;;;;;;;;4989750;28;99734;-78
2022/10/26 08:57:09;;;;;;;9.00;4.00;;;;;;;;;;4983805;28;100248;-76
2022/10/26 08:59:45;;;;;;;14.93;4.00;;;;;;;;;;4977852;28;98786;-76
2022/10/26 09:02:13;;;;;;;4.00;3.40;;;;;;;;;;4992734;28;100229;-77
2022/10/26 09:04:39;;;;;;;6.00;4.15;;;;;;;;;;4986556;28;100964;-76
2022/10/26 09:07:13;;;;;;;12.38;3.97;;;;;;;;;;4988947;28;99183;-76
2022/10/26 09:09:45;;;;;;;8.90;4.07;;;;;;;;;;4994004;28;99925;-75
2022/10/26 09:12:16;;;;;;;7.40;3.77;;;;;;;;;;4991184;28;99916;-76
2022/10/26 09:14:57;;;;;;;6.45;4.25;;;;;;;;;;4987549;28;98716;-76
2022/10/26 09:17:23;;;;;;;8.20;4.05;;;;;;;;;;4991046;28;100924;-77
2022/10/26 09:19:58;;;;;;;9.45;3.72;;;;;;;;;;4990992;28;98748;-77
2022/10/26 09:22:40;;;;;;;8.68;4.60;;;;;;;;;;4993206;28;99933;-76
2022/10/26 09:25:33;;;;;;;9.98;3.80;;;;;;;;;;4992034;28;100959;-76
2022/10/26 09:28:03;;;;;;;8.18;3.90;;;;;;;;;;4979967;28;98698;-77
2022/10/26 09:30:39;;;;;;;13.45;4.05;;;;;;;;;;4987556;28;99919;-76
2022/10/26 09:33:25;;;;;;;8.13;4.22;;;;;;;;;;4991662;28;99836;-76
2022/10/26 09:35:58;;;;;;;13.07;4.80;;;;;;;;;;4990781;28;100441;-76
2022/10/26 09:38:24;;;;;;;5.00;4.07;;;;;;;;;;4991992;28;101522;-76
2022/10/26 09:41:13;;;;;;;6.25;4.30;;;;;;;;;;4992252;28;99022;-76
2022/10/26 09:43:46;;;;;;;7.90;4.13;;;;;;;;;;4977093;28;101583;-75
2022/10/26 09:46:22;;;;;;;8.85;4.20;;;;;;;;;;4984889;28;99325;-77
2022/10/26 09:48:52;;;;;;;5.78;3.83;;;;;;;;;;4991008;28;98467;-77
2022/10/26 09:51:19;;;;;;;9.13;3.97;;;;;;;;;;4993038;28;100606;-77
2022/10/26 09:53:47;;;;;;;11.38;3.88;;;;;;;;;;4987606;28;99270;-77
2022/10/26 09:56:15;;;;;;;12.13;3.83;;;;;;;;;;4989636;28;98708;-76
2022/10/26 09:58:45;;;;;;;6.88;3.65;;;;;;;;;;4990481;28;100278;-76
2022/10/26 10:01:33;;;;;;;12.50;4.22;;;;;;;;;;4974021;28;98148;-76
2022/10/26 10:04:12;;;;;;;10.15;3.28;;;;;;;;;;4988868;28;98506;-76
2022/10/26 10:06:39;;;;;;;6.60;3.20;;;;;;;;;;4983803;28;100173;-76
2022/10/26 10:09:19;;;;;;;8.55;2.78;;;;;;;;;;4979919;28;99790;-76
2022/10/26 10:11:56;;;;;;;7.30;3.25;;;;;;;;;;4990497;28;99994;-76
2022/10/26 10:14:23;;;;;;;12.05;3.33;;;;;;;;;;4985084;28;99294;-76
2022/10/26 10:16:56;;;;;;;9.70;3.50;;;;;;;;;;4988714;28;98886;-76
2022/10/26 10:19:34;;;;;;;7.43;3.13;;;;;;;;;;4990574;28;100193;-76
2022/10/26 10:22:08;;;;;;;14.23;3.33;;;;;;;;;;4986731;28;99884;-76
2022/10/26 10:24:35;;;;;;;8.15;3.22;;;;;;;;;;4993580;28;99818;-76
2022/10/26 10:27:14;;;;;;;7.50;3.20;;;;;;;;;;4989684;28;98643;-76
2022/10/26 10:29:56;;;;;;;9.25;2.72;;;;;;;;;;4989858;28;98814;-77
2022/10/26 10:32:30;;;;;;;10.23;3.30;;;;;;;;;;4987475;28;99951;-77
2022/10/26 10:35:21;;;;;;;37.92;26.35;;;;;;;;;;4987632;28;101179;-77
2022/10/26 10:37:49;;;;;;;12.70;4.40;;;;;;;;;;4991291;28;99600;-77
2022/10/26 10:40:26;;;;;;;49.22;17.10;;;;;;;;;;4989890;28;100359;-79
2022/10/26 10:43:00;;;;;;;13.20;4.60;;;;;;;;;;4991344;28;98576;-78
2022/10/26 10:45:31;;;;;;;4.28;3.03;;;;;;;;;;4991634;28;99335;-77
2022/10/26 10:48:04;;;;;;;11.60;3.78;;;;;;;;;;5006278;28;99727;-78
2022/10/26 10:50:32;;;;;;;9.80;3.65;;;;;;;;;;4990010;28;100212;-79
2022/10/26 10:53:30;;;;;;;11.60;3.00;;;;;;;;;;4992752;28;99051;-77
2022/10/26 10:56:01;;;;;;;9.77;4.22;;;;;;;;;;4969296;28;99879;-77
2022/10/26 10:58:34;;;;;;;7.68;3.00;;;;;;;;;;4980720;28;99764;-77
2022/10/26 11:01:01;;;;;;;6.13;3.25;;;;;;;;;;4994033;28;99941;-78
2022/10/26 11:03:34;;;;;;;5.88;2.80;;;;;;;;;;4993378;28;100073;-78
2022/10/26 11:06:13;;;;;;;11.27;4.65;;;;;;;;;;4987500;28;101070;-76
2022/10/26 11:08:49;;;;;;;11.75;3.42;;;;;;;;;;4992023;28;100836;-77
2022/10/26 11:11:19;;;;;;;5.72;3.30;;;;;;;;;;4993041;28;99753;-76
2022/10/26 11:13:58;;;;;;;7.88;3.55;;;;;;;;;;4992632;28;99971;-77
2022/10/26 11:16:28;;;;;;;8.50;3.42;;;;;;;;;;4992706;28;100405;-77
2022/10/26 11:19:15;;;;;;;10.23;3.80;;;;;;;;;;4994075;28;97759;-77
2022/10/26 11:21:43;;;;;;;11.20;3.47;;;;;;;;;;4989581;28;100498;-83
2022/10/26 11:24:22;;;;;;;10.90;3.25;;;;;;;;;;4993856;28;100679;-77
2022/10/26 11:26:54;;;;;;;9.88;4.03;;;;;;;;;;4996587;28;99327;-77
2022/10/26 11:29:20;;;;;;;7.03;3.17;;;;;;;;;;4992904;28;101051;-79
2022/10/26 11:31:56;;;;;;;6.50;3.40;;;;;;;;;;4993974;28;99532;-77
2022/10/26 11:34:26;;;;;;;13.52;3.70;;;;;;;;;;4993405;28;100151;-76
2022/10/26 11:37:04;;;;;;;9.48;3.75;;;;;;;;;;4997321;28;99141;-77
2022/10/26 11:39:43;;;;;;;6.25;3.35;;;;;;;;;;4988794;28;99138;-77
2022/10/26 11:42:44;;;;;;;10.65;3.22;;;;;;;;;;4994795;28;99807;-77
2022/10/26 11:45:17;;;;;;;10.32;2.65;;;;;;;;;;4968497;28;98525;-76
2022/10/26 11:48:01;;;;;;;18.20;2.83;;;;;;;;;;4985444;28;100838;-75
2022/10/26 11:50:31;;;;;;;6.75;2.60;;;;;;;;;;5006356;28;99916;-77
2022/10/26 11:53:05;;;;;;;5.43;2.50;;;;;;;;;;4973990;28;99148;-77
2022/10/26 11:55:32;;;;;;;7.03;3.00;;;;;;;;;;4980263;28;100619;-75
2022/10/26 11:58:01;;;;;;;5.40;2.72;;;;;;;;;;4994447;28;100231;-75
2022/10/26 12:00:30;;;;;;;7.35;3.28;;;;;;;;;;4989181;28;98981;-76
2022/10/26 12:03:02;;;;;;;6.60;2.80;;;;;;;;;;4991239;28;99993;-78
2022/10/26 12:05:31;;;;;;;8.85;3.58;;;;;;;;;;4993578;28;100557;-76
2022/10/26 12:08:00;;;;;;;5.65;2.55;;;;;;;;;;4985617;28;98622;-78
2022/10/26 12:10:32;;;;;;;8.93;2.47;;;;;;;;;;4989356;28;99941;-78
2022/10/26 12:13:12;;;;;;;8.52;2.97;;;;;;;;;;4993780;28;100551;-75
2022/10/26 12:15:46;;;;;;;4.28;2.40;;;;;;;;;;4987204;28;99529;-75
2022/10/26 12:18:36;;;;;;;5.57;2.70;;;;;;;;;;4981892;28;100026;-75
2022/10/26 12:21:22;;;;;;;7.00;2.58;;;;;;;;;;4988806;28;98560;-75
2022/10/26 12:23:56;;;;;;;8.50;2.70;;;;;;;;;;4986496;28;99876;-76
2022/10/26 12:26:27;;;;;;;4.20;2.53;;;;;;;;;;4990244;28;100456;-76
2022/10/26 12:29:03;;;;;;;10.85;2.85;;;;;;;;;;5000205;28;98582;-76
2022/10/26 12:31:36;;;;;;;6.47;2.55;;;;;;;;;;4996797;28;99885;-76
2022/10/26 12:34:35;;;;;;;5.95;2.80;;;;;;;;;;4980072;28;100061;-75
2022/10/26 12:37:01;;;;;;;6.38;2.70;;;;;;;;;;4968273;28;98052;-75
2022/10/26 12:39:30;;;;;;;4.45;2.53;;;;;;;;;;4985514;28;100158;-76
2022/10/26 12:41:56;;;;;;;10.45;3.13;;;;;;;;;;4999063;28;98827;-79
2022/10/26 12:44:53;;;;;;;36.88;4.63;;;;;;;;;;4993884;28;100275;-77
2022/10/26 12:47:31;;;;;;;13.82;2.58;;;;;;;;;;5004380;28;100593;-78
2022/10/26 12:50:06;;;;;;;11.20;2.90;;;;;;;;;;4988976;28;99306;-78
2022/10/26 12:52:41;;;;;;;6.72;2.40;;;;;;;;;;4987135;28;99996;-77
2022/10/26 12:55:10;;;;;;;6.70;2.30;;;;;;;;;;4991778;28;100398;-77
2022/10/26 12:57:44;;;;;;;2.70;1.75;;;;;;;;;;4993317;28;98558;-76
2022/10/26 13:00:16;;;;;;;8.27;2.50;;;;;;;;;;4988281;28;100085;-76
2022/10/26 13:03:01;;;;;;;5.95;2.30;;;;;;;;;;4986925;28;98768;-77
2022/10/26 13:05:31;;;;;;;5.32;2.17;;;;;;;;;;4991565;28;99276;-77
2022/10/26 13:08:04;;;;;;;7.53;2.13;;;;;;;;;;4991222;28;100912;-76
2022/10/26 13:10:35;;;;;;;4.13;2.30;;;;;;;;;;4985818;28;100052;-76
2022/10/26 13:13:04;;;;;;;4.57;2.20;;;;;;;;;;4990808;28;99911;-76
2022/10/26 13:15:37;;;;;;;5.28;2.42;;;;;;;;;;4991085;28;100154;-77
2022/10/26 13:18:15;;;;;;;7.63;2.72;;;;;;;;;;4989722;28;98618;-77
2022/10/26 13:21:02;;;;;;;11.90;2.70;;;;;;;;;;4988865;28;98983;-76
2022/10/26 13:23:30;;;;;;;6.45;2.60;;;;;;;;;;4990905;28;100040;-76
2022/10/26 13:26:13;;;;;;;6.45;2.83;;;;;;;;;;4990942;28;99068;-76
2022/10/26 13:28:40;;;;;;;7.85;3.63;;;;;;;;;;4975109;28;97768;-77
2022/10/26 13:31:12;;;;;;;11.57;2.72;;;;;;;;;;4991689;28;98494;-77
2022/10/26 13:33:38;;;;;;;;;;;;;;;;;;4978649;28;100160;-77
2022/10/26 13:36:16;;;;;;;13.57;3.13;;;;;;;;;;4975852;28;129003;-77
2022/10/26 13:38:43;;;;;;;10.23;2.67;;;;;;;;;;4991748;28;98482;-77
2022/10/26 13:41:16;;;;;;;11.70;3.17;;;;;;;;;;4992440;28;99911;-77
2022/10/26 13:43:42;;;;;;;4.75;2.83;;;;;;;;;;4995598;28;100553;-78
2022/10/26 13:46:21;;;;;;;8.25;2.60;;;;;;;;;;4990788;28;100183;-74
2022/10/26 13:48:48;;;;;;;5.38;2.55;;;;;;;;;;4991250;28;99467;-76
2022/10/26 13:51:23;;;;;;;8.55;3.22;;;;;;;;;;4992203;28;98601;-76
2022/10/26 13:53:52;;;;;;;11.77;2.42;;;;;;;;;;4991565;28;99051;-76
2022/10/26 13:56:36;;;;;;;7.40;3.13;;;;;;;;;;4990092;28;100162;-75
2022/10/26 13:59:09;;;;;;;8.40;2.78;;;;;;;;;;4991835;28;98656;-75
2022/10/26 14:01:38;;;;;;;6.35;2.65;;;;;;;;;;4990560;28;99222;-74
2022/10/26 14:04:24;;;;;;;9.55;3.15;;;;;;;;;;4990971;28;99457;-75
2022/10/26 14:06:52;;;;;;;4.40;2.42;;;;;;;;;;4993511;28;98695;-75
2022/10/26 14:09:18;;;;;;;5.60;2.80;;;;;;;;;;4991605;28;100167;-76
2022/10/26 14:11:51;;;;;;;8.55;2.40;;;;;;;;;;4990897;28;98579;-75
2022/10/26 14:14:33;;;;;;;7.57;3.15;;;;;;;;;;4990619;28;99845;-75
2022/10/26 14:16:59;;;;;;;5.15;2.45;;;;;;;;;;4984428;28;99572;-78
2022/10/26 14:19:32;;;;;;;4.60;2.55;;;;;;;;;;4991990;28;97765;-76
2022/10/26 14:22:00;;;;;;;;;;;;;;;;;;4991473;28;98577;-76
2022/10/26 14:24:34;;;;;;;8.90;3.63;;;;;;;;;;4991380;28;129357;-76
2022/10/26 14:27:14;;;;;;;5.10;2.72;;;;;;;;;;4990404;28;99388;-76
2022/10/26 14:29:40;;;;;;;12.35;3.35;;;;;;;;;;4992596;28;100977;-76
2022/10/26 14:32:26;;;;;;;6.25;2.58;;;;;;;;;;4991084;28;98575;-76
2022/10/26 14:34:54;;;;;;;8.65;2.75;;;;;;;;;;4994317;28;99812;-76
2022/10/26 14:37:24;;;;;;;7.03;3.13;;;;;;;;;;4993276;28;100160;-74
2022/10/26 14:39:50;;;;;;;12.50;2.90;;;;;;;;;;4995038;28;98534;-75
2022/10/26 14:42:23;;;;;;;7.85;2.80;;;;;;;;;;4994628;28;100161;-76
2022/10/26 14:44:50;;;;;;;13.40;2.88;;;;;;;;;;4994313;28;99440;-76
2022/10/26 14:47:22;;;;;;;11.63;3.03;;;;;;;;;;4994524;28;99244;-76
2022/10/26 14:49:48;;;;;;;6.82;2.47;;;;;;;;;;4996360;28;99920;-75